Latest Weather Observations for Point Fawcett

IDD60901

Issued at 3:21 pm CST Friday 4 September 2015 (issued every 10 minutes, with the page automatically refreshed every 10 minutes)

About weather observations | Map of Darwin area stations | Latest observations for Darwin area | Other Formats
Station Details ID: 200731 Name: POINT FAWCETT Lat: -11.76 Lon: 130.03 Height: 6.5 m
Data from the previous 72 hours. | See also: Recent months at Point Fawcett
Date/Time
CST
Tmp

°C
App
Tmp
°C
Dew
Point
°C
Rel
Hum
%
Delta-T

°C
Wind Press
QNH
hPa
Press
MSL
hPa
Rain
since
9 am
mm
Dir
 
Spd
km/h
Gust
km/h
Spd
kts
Gust
kts
04/03:00pm 30.0 31.5 20.5 56 6.3 SW 13 22 7 12 1013.8 1013.7 0.0
04/02:30pm 31.0 33.4 20.9 55 6.7 S 9 17 5 9 1014.1 - 0.0
04/02:00pm 30.9 31.6 19.6 51 7.4 SW 15 20 8 11 1014.5 - 0.0
04/01:30pm 31.3 32.8 20.6 53 7.1 SW 13 20 7 11 1015.1 - 0.0
04/01:00pm 30.8 32.9 21.0 56 6.5 WSW 11 15 6 8 1015.4 - 0.0
04/12:30pm 29.9 31.4 20.5 57 6.2 WSW 13 17 7 9 1015.8 - 0.0
04/12:00pm 29.9 31.8 20.5 57 6.2 WSW 11 19 6 10 1016.3 1016.2 0.0
04/11:30am 29.4 31.3 20.5 58 5.9 WNW 11 15 6 8 1016.8 - 0.0
04/11:00am 29.5 31.9 20.9 60 5.7 NNW 9 13 5 7 1017.1 - 0.0
04/10:30am 30.1 32.3 20.4 56 6.4 NNW 9 13 5 7 1017.2 - 0.0
04/10:00am 30.4 32.1 18.5 49 7.7 E 7 13 4 7 1017.3 - 0.0
04/09:30am 29.2 31.1 19.8 57 6.2 E 9 13 5 7 1017.1 - 0.0
04/09:00am 27.6 30.0 20.9 67 4.4 ENE 9 15 5 8 1017.0 1016.9 0.0
04/08:30am 25.9 28.7 21.6 77 2.9 E 9 13 5 7 1016.9 - 0.0
04/08:00am 23.5 26.5 21.9 91 1.1 E 9 11 5 6 1016.6 - 0.0
04/07:30am 21.6 24.1 21.1 97 0.3 E 9 13 5 7 1016.4 - 0.0
04/07:00am 21.1 23.1 20.8 98 0.2 E 11 15 6 8 1016.0 - 0.0
04/06:30am 19.2 20.5 18.5 96 0.4 E 9 11 5 6 1015.5 - 0.0
04/06:00am 18.7 19.8 17.9 95 0.5 E 9 9 5 5 1015.1 1015.0 0.0
04/05:30am 18.8 20.3 18.0 95 0.5 ESE 7 9 4 5 1014.7 - 0.0
04/05:00am 18.8 20.2 17.8 94 0.6 ESE 7 9 4 5 1014.6 - 0.0
04/04:30am 19.0 20.5 18.0 94 0.6 ESE 7 7 4 4 1014.6 - 0.0
04/04:00am 19.1 20.8 18.1 94 0.6 SE 6 7 3 4 1014.6 - 0.0
04/03:30am 19.4 22.4 18.4 94 0.6 CALM 0 0 0 0 1014.7 - 0.0
04/03:00am 19.6 22.7 18.6 94 0.6 CALM 0 0 0 0 1014.8 1014.7 0.0
04/02:30am 19.8 22.8 18.5 92 0.8 CALM 0 0 0 0 1014.8 - 0.0
04/02:00am 20.0 23.1 18.7 92 0.8 CALM 0 0 0 0 1015.0 - 0.0
04/01:30am 20.3 23.5 18.8 91 0.9 CALM 0 0 0 0 1015.0 - 0.0
04/01:00am 20.9 24.0 19.6 92 0.8 NW 2 6 1 3 1015.2 - 0.0
04/12:30am 21.3 24.8 19.6 90 1.1 CALM 0 0 0 0 1015.5 - 0.0
04/12:00am 21.7 23.8 19.4 87 1.5 W 7 11 4 6 1015.8 1015.7 0.0
 
Date/Time
CST
Tmp

°C
App
Tmp
°C
Dew
Point
°C
Rel
Hum
%
Delta-T

°C
Wind Press
QNH
hPa
Press
MSL
hPa
Rain
since
9 am
mm
Dir
 
Spd
km/h
Gust
km/h
Spd
kts
Gust
kts
03/11:30pm 22.6 24.5 19.8 84 1.8 WNW 9 11 5 6 1015.7 - 0.0
03/11:00pm 24.7 27.2 21.0 80 2.4 WNW 9 11 5 6 1015.7 - 0.0
03/10:30pm 25.9 28.8 22.4 81 2.4 WNW 11 13 6 7 1015.5 - 0.0
03/10:00pm 26.1 29.1 22.6 81 2.4 NW 11 13 6 7 1015.4 - 0.0
03/09:30pm 26.2 29.2 22.7 81 2.4 NW 11 13 6 7 1015.5 - 0.0
03/09:00pm 26.2 29.2 22.7 81 2.4 NNW 11 15 6 8 1015.3 1015.2 0.0
03/08:30pm 26.2 29.1 22.5 80 2.5 N 11 15 6 8 1015.1 - 0.0
03/08:00pm 26.3 29.5 22.4 79 2.6 N 9 11 5 6 1014.9 - 0.0
03/07:30pm 26.6 30.2 22.4 78 2.8 N 7 11 4 6 1014.5 - 0.0
03/07:00pm 26.8 29.9 21.5 72 3.5 NNW 7 9 4 5 1014.3 - 0.0
03/06:30pm 27.9 31.1 21.7 69 4.2 NW 7 9 4 5 1014.0 - 0.0
03/06:00pm 28.5 31.4 21.8 67 4.5 W 9 11 5 6 1013.9 1013.8 0.0
03/05:30pm 29.2 32.3 22.2 66 4.7 W 9 13 5 7 1013.5 - 0.0
03/05:00pm 29.6 32.7 22.1 64 5.1 WSW 9 13 5 7 1013.5 - 0.0
03/04:30pm 30.2 32.9 22.1 62 5.5 W 11 15 6 8 1013.4 - 0.0
03/04:00pm 30.5 33.5 22.7 63 5.3 W 11 15 6 8 1013.4 - 0.0
03/03:30pm 30.1 32.5 22.3 63 5.3 W 13 17 7 9 1013.5 - 0.0
03/03:00pm 30.3 33.1 23.0 65 5.0 WNW 13 17 7 9 1013.8 1013.7 0.0
03/02:30pm 30.7 33.7 23.4 65 5.0 WNW 13 17 7 9 1014.1 - 0.0
03/02:00pm 29.9 32.5 22.6 65 5.0 WNW 13 17 7 9 1014.4 - 0.0
03/01:30pm 30.3 32.9 22.7 64 5.2 WNW 13 17 7 9 1014.6 - 0.0
03/01:00pm 30.5 33.0 22.4 62 5.5 WNW 13 15 7 8 1015.1 - 0.0
03/12:30pm 30.2 32.7 22.4 63 5.3 WNW 13 15 7 8 1015.7 - 0.0
03/12:00pm 30.7 33.8 22.8 62 5.4 NW 11 15 6 8 1016.2 1016.1 0.0
03/11:30am 30.1 33.5 23.3 67 4.7 NNW 11 15 6 8 1016.8 - 0.0
03/11:00am 29.9 33.3 23.3 67 4.5 N 11 15 6 8 1017.0 - 0.0
03/10:30am 29.9 33.1 23.1 67 4.7 N 11 15 6 8 1017.2 - 0.0
03/10:00am 29.2 32.5 23.2 70 4.1 NNW 11 13 6 7 1017.2 - 0.0
03/09:30am 28.2 31.8 22.4 71 3.9 WNW 7 9 4 5 1017.2 - 0.0
03/09:00am 27.4 31.3 22.6 75 3.2 W 6 9 3 5 1016.9 1016.8 0.0
03/08:30am 25.9 31.8 24.1 90 1.2 CALM 0 0 0 0 1016.6 - 0.0
03/08:00am 22.3 26.9 21.8 97 0.3 CALM 0 0 0 0 1016.2 - 0.0
03/07:30am 19.4 22.5 18.7 96 0.4 CALM 0 0 0 0 1015.7 - 0.0
03/07:00am 18.6 21.3 17.8 95 0.5 CALM 0 0 0 0 1015.4 - 0.0
03/06:30am 18.8 21.5 17.8 94 0.6 CALM 0 0 0 0 1015.1 - 0.0
03/06:00am 19.0 21.1 18.0 94 0.6 SE 4 7 2 4 1014.7 1014.6 0.0
03/05:30am 19.1 20.7 18.3 95 0.5 SE 7 9 4 5 1014.3 - 0.0
03/05:00am 19.1 20.6 18.1 94 0.6 ESE 7 9 4 5 1014.2 - 0.0
03/04:30am 19.2 20.8 18.2 94 0.6 ESE 7 9 4 5 1014.1 - 0.0
03/04:00am 19.2 20.7 18.0 93 0.7 E 7 9 4 5 1014.1 - 0.0
03/03:30am 19.4 21.2 18.2 93 0.7 SE 6 9 3 5 1014.1 - 0.0
03/03:00am 19.5 22.4 18.3 93 0.7 CALM 0 0 0 0 1014.0 1013.9 0.0
03/02:30am 19.7 22.7 18.4 92 0.8 CALM 0 0 0 0 1014.1 - 0.0
03/02:00am 19.8 22.7 18.3 91 0.9 CALM 0 0 0 0 1014.2 - 0.0
03/01:30am 20.0 21.9 18.5 91 0.9 SW 6 7 3 4 1014.3 - 0.0
03/01:00am 20.2 23.2 18.5 90 1.1 CALM 0 0 0 0 1014.6 - 0.0
03/12:30am 20.4 23.4 18.5 89 1.2 CALM 0 4 0 2 1015.0 - 0.0
03/12:00am 20.7 23.0 18.5 87 1.4 SW 4 6 2 3 1015.0 1014.9 0.0
 
Date/Time
CST
Tmp

°C
App
Tmp
°C
Dew
Point
°C
Rel
Hum
%
Delta-T

°C
Wind Press
QNH
hPa
Press
MSL
hPa
Rain
since
9 am
mm
Dir
 
Spd
km/h
Gust
km/h
Spd
kts
Gust
kts
02/11:30pm 21.1 23.2 18.9 87 1.4 SW 6 7 3 4 1015.0 - 0.0
02/11:00pm 21.8 24.4 19.2 85 1.6 S 4 6 2 3 1014.9 - 0.0
02/10:30pm 22.8 25.1 19.4 81 2.2 SSW 6 7 3 4 1014.7 - 0.0
02/10:00pm 24.2 26.4 19.7 76 2.9 SSW 7 11 4 6 1014.7 - 0.0
02/09:30pm 25.5 27.4 20.5 74 3.3 SW 11 15 6 8 1014.4 - 0.0
02/09:00pm 26.4 28.7 21.4 74 3.3 SW 11 17 6 9 1014.1 - 0.0
02/08:30pm 26.4 28.2 21.2 73 3.4 SW 13 17 7 9 1013.8 - 0.0
02/08:00pm 26.6 28.4 21.1 72 3.6 WSW 13 19 7 10 1013.5 - 0.0
02/07:30pm 26.6 28.8 21.8 75 3.2 WSW 13 19 7 10 1013.2 - 0.0
02/07:00pm 26.7 28.9 21.9 75 3.2 WSW 13 19 7 10 1012.9 - 0.0
02/06:30pm 27.5 30.3 21.5 70 4.0 WSW 9 13 5 7 1012.7 - 0.0
02/06:00pm 28.5 30.9 21.5 66 4.7 WSW 11 13 6 7 1012.5 1012.4 0.0
02/05:30pm 28.9 31.4 21.7 65 4.8 WSW 11 15 6 8 1012.4 - 0.0
02/05:00pm 29.6 32.0 21.5 61 5.4 WSW 11 15 6 8 1012.3 - 0.0
02/04:30pm 29.6 30.7 21.3 61 5.6 SW 17 24 9 13 1012.2 - 0.0
02/04:00pm 29.9 31.4 21.3 60 5.8 SW 15 22 8 12 1012.2 - 0.0
02/03:30pm 29.9 31.3 21.8 62 5.5 SW 17 24 9 13 1012.3 - 0.0
02/03:00pm 30.2 31.9 21.6 60 5.8 SW 15 20 8 11 1012.7 1012.6 0.0
02/02:30pm 30.1 32.1 22.3 63 5.3 SW 15 22 8 12 1013.1 - 0.0
02/02:00pm 30.0 31.8 21.9 62 5.5 WSW 15 24 8 13 1013.7 - 0.0
02/01:30pm 30.1 31.8 21.7 60 5.7 SW 15 22 8 12 1014.2 - 0.0
02/01:00pm 31.0 33.2 22.6 61 5.7 WSW 15 19 8 10 1014.8 - 0.0
02/12:30pm 30.0 31.8 21.9 62 5.5 WSW 15 22 8 12 1015.2 - 0.0
02/12:00pm 30.4 32.4 21.5 59 6.0 SSW 13 20 7 11 1015.7 1015.6 0.0
02/11:30am 29.2 31.4 21.9 64 4.9 SSW 13 20 7 11 1016.2 - 0.0
02/11:00am 29.6 31.8 21.8 63 5.3 SW 13 20 7 11 1016.6 - 0.0
02/10:30am 28.1 30.3 21.1 65 4.7 WSW 11 17 6 9 1016.7 - 0.0
02/10:00am 29.0 31.8 21.5 64 5.0 WSW 9 13 5 7 1016.6 - 0.0
02/09:30am 29.1 32.0 21.8 64 4.9 SW 9 13 5 7 1016.4 - 0.0
02/09:00am 28.2 31.0 21.5 67 4.5 SW 9 13 5 7 1016.3 1016.2 0.0
02/08:30am 27.0 30.0 22.0 74 3.4 SW 9 15 5 8 1016.0 - 0.0
02/08:00am 24.1 28.2 22.9 93 0.8 S 6 9 3 5 1015.7 - 0.0
02/07:30am 20.9 23.3 20.1 95 0.5 S 7 9 4 5 1015.3 - 0.0
02/07:00am 20.1 22.2 18.9 93 0.8 S 6 7 3 4 1014.9 - 0.0
02/06:30am 20.3 22.3 19.1 93 0.8 S 7 9 4 5 1014.4 - 0.0
02/06:00am 20.9 23.1 19.7 93 0.8 SSW 7 9 4 5 1014.0 1013.9 0.0
02/05:30am 20.9 23.3 19.6 92 0.8 S 6 9 3 5 1013.7 - 0.0
02/05:00am 21.1 23.5 19.7 92 0.9 SSW 6 9 3 5 1013.6 - 0.0
02/04:30am 21.4 23.8 19.7 90 1.1 SW 6 9 3 5 1013.5 - 0.0
02/04:00am 21.9 24.3 19.6 87 1.5 SSW 6 7 3 4 1013.5 - 0.0
02/03:30am 23.5 26.0 21.0 86 1.6 W 9 13 5 7 1013.6 - 0.0
02/03:00am 23.7 26.2 20.2 81 2.3 WSW 7 11 4 6 1013.6 1013.5 0.0
02/02:30am 25.1 27.8 21.4 80 2.4 WSW 9 13 5 7 1013.6 - 0.0
02/02:00am 25.6 28.2 21.9 80 2.5 WSW 11 15 6 8 1013.6 - 0.0
02/01:30am 25.8 28.5 22.1 80 2.5 WSW 11 17 6 9 1013.9 - 0.0
02/01:00am 25.9 28.8 22.4 81 2.4 WSW 11 17 6 9 1014.1 - 0.0
02/12:30am 26.0 28.8 22.3 80 2.5 WSW 11 17 6 9 1014.2 - 0.0
02/12:00am 26.1 29.0 22.4 80 2.5 WSW 11 17 6 9 1014.3 1014.2 0.0
 
Date/Time
CST
Tmp

°C
App
Tmp
°C
Dew
Point
°C
Rel
Hum
%
Delta-T

°C
Wind Press
QNH
hPa
Press
MSL
hPa
Rain
since
9 am
mm
Dir
 
Spd
km/h
Gust
km/h
Spd
kts
Gust
kts
01/11:30pm 26.2 28.7 22.5 80 2.5 WSW 13 20 7 11 1014.4 - 0.0
01/11:00pm 26.2 28.6 22.3 79 2.6 WSW 13 19 7 10 1014.3 - 0.0
01/10:30pm 26.3 28.4 22.4 79 2.6 WSW 15 20 8 11 1014.3 - 0.0
01/10:00pm 26.4 28.4 22.3 78 2.8 SW 15 22 8 12 1014.1 - 0.0
01/09:30pm 26.4 28.5 22.5 79 2.6 SW 15 20 8 11 1014.0 - 0.0
01/09:00pm 26.4 28.9 22.5 79 2.6 SW 13 19 7 10 1013.8 - 0.0
01/08:30pm 26.5 29.1 22.6 79 2.6 SW 13 20 7 11 1013.4 - 0.0
01/08:00pm 26.6 29.1 22.4 78 2.8 SW 13 17 7 9 1013.1 - 0.0
01/07:30pm 26.7 29.0 22.1 76 3.1 WSW 13 19 7 10 1012.6 - 0.0
01/07:00pm 27.0 30.2 22.4 76 3.1 WSW 9 15 5 8 1012.4 - 0.0
01/06:30pm 27.7 30.6 22.4 73 3.6 WSW 11 17 6 9 1012.1 - 0.0
01/06:00pm 28.4 30.8 22.2 69 4.2 SW 13 20 7 11 1011.8 1011.7 0.0
01/05:30pm 29.3 31.6 22.0 64 4.9 WSW 13 19 7 10 1011.7 - 0.0
01/05:00pm 29.9 32.2 22.1 63 5.3 WSW 13 19 7 10 1011.6 - 0.0
01/04:30pm 30.1 32.5 22.3 63 5.3 SW 13 19 7 10 1011.6 - 0.0
01/04:00pm 30.3 32.5 21.9 60 5.7 WSW 13 19 7 10 1011.7 - 0.0
01/03:30pm 30.5 33.1 22.7 63 5.3 WSW 13 19 7 10 1012.1 - 0.0

Latest Capital City Observations: Canberra | Sydney | Melbourne | Brisbane | Adelaide | Perth | Hobart | Darwin

Other Formats:

Comma delimited format used in spreadsheet applications
http://www.bom.gov.au/fwo/IDD60901/IDD60901.94122.axf

JavaScript Object Notation format (JSON) in row-major order
http://www.bom.gov.au/fwo/IDD60901/IDD60901.94122.json